sensor_id;sensor_type;location;lat;lon;timestamp;pressure;altitude;pressure_sealevel;temperature;humidity
64352;BME280;50680;52.626;-8.668;2023-03-18T00:00:59;99865.75;;;10.97;100.00
64352;BME280;50680;52.626;-8.668;2023-03-18T00:03:31;99867.22;;;11.01;100.00
64352;BME280;50680;52.626;-8.668;2023-03-18T00:06:06;99868.03;;;11.01;100.00
64352;BME280;50680;52.626;-8.668;2023-03-18T00:08:33;99872.97;;;11.17;100.00
64352;BME280;50680;52.626;-8.668;2023-03-18T00:11:00;99876.09;;;11.22;100.00
64352;BME280;50680;52.626;-8.668;2023-03-18T00:13:27;99881.00;;;11.27;100.00
64352;BME280;50680;52.626;-8.668;2023-03-18T00:15:54;99888.16;;;11.25;100.00
64352;BME280;50680;52.626;-8.668;2023-03-18T00:18:21;99883.41;;;11.30;100.00
64352;BME280;50680;52.626;-8.668;2023-03-18T00:20:48;99888.88;;;11.38;100.00
64352;BME280;50680;52.626;-8.668;2023-03-18T00:23:15;99890.06;;;11.34;100.00
64352;BME280;50680;52.626;-8.668;2023-03-18T00:25:41;99891.28;;;11.41;100.00
64352;BME280;50680;52.626;-8.668;2023-03-18T00:28:09;99894.00;;;11.40;100.00
64352;BME280;50680;52.626;-8.668;2023-03-18T00:30:38;99901.78;;;11.41;100.00
64352;BME280;50680;52.626;-8.668;2023-03-18T00:33:05;99905.09;;;11.43;100.00
64352;BME280;50680;52.626;-8.668;2023-03-18T00:35:33;99902.97;;;11.48;100.00
64352;BME280;50680;52.626;-8.668;2023-03-18T00:38:02;99903.84;;;11.49;100.00
64352;BME280;50680;52.626;-8.668;2023-03-18T00:40:33;99905.72;;;11.47;100.00
64352;BME280;50680;52.626;-8.668;2023-03-18T00:43:20;99905.72;;;11.47;100.00
64352;BME280;50680;52.626;-8.668;2023-03-18T00:45:49;99913.59;;;11.47;100.00
64352;BME280;50680;52.626;-8.668;2023-03-18T00:48:16;99918.00;;;11.46;100.00
64352;BME280;50680;52.626;-8.668;2023-03-18T00:50:44;99924.34;;;11.44;100.00
64352;BME280;50680;52.626;-8.668;2023-03-18T00:53:11;99923.25;;;11.35;100.00
64352;BME280;50680;52.626;-8.668;2023-03-18T00:55:38;99929.94;;;11.39;100.00
64352;BME280;50680;52.626;-8.668;2023-03-18T00:58:05;99931.56;;;11.29;100.00
64352;BME280;50680;52.626;-8.668;2023-03-18T01:00:34;99935.06;;;11.41;100.00
64352;BME280;50680;52.626;-8.668;2023-03-18T01:03:01;99940.53;;;11.26;100.00
64352;BME280;50680;52.626;-8.668;2023-03-18T01:05:28;99949.44;;;11.24;100.00
64352;BME280;50680;52.626;-8.668;2023-03-18T01:07:56;99947.41;;;11.27;100.00
64352;BME280;50680;52.626;-8.668;2023-03-18T01:10:24;99953.38;;;11.29;100.00
64352;BME280;50680;52.626;-8.668;2023-03-18T01:12:51;99951.72;;;11.28;100.00
64352;BME280;50680;52.626;-8.668;2023-03-18T01:15:19;99957.91;;;11.27;100.00
64352;BME280;50680;52.626;-8.668;2023-03-18T01:17:47;99960.66;;;11.26;100.00
64352;BME280;50680;52.626;-8.668;2023-03-18T01:20:17;99956.06;;;11.41;100.00
64352;BME280;50680;52.626;-8.668;2023-03-18T01:22:44;99954.50;;;11.38;100.00
64352;BME280;50680;52.626;-8.668;2023-03-18T01:25:12;99966.28;;;11.33;100.00
64352;BME280;50680;52.626;-8.668;2023-03-18T01:27:42;99963.34;;;11.37;100.00
64352;BME280;50680;52.626;-8.668;2023-03-18T01:30:10;99966.09;;;11.47;100.00
64352;BME280;50680;52.626;-8.668;2023-03-18T01:32:36;99970.13;;;11.40;100.00
64352;BME280;50680;52.626;-8.668;2023-03-18T01:35:04;99975.59;;;11.37;100.00
64352;BME280;50680;52.626;-8.668;2023-03-18T01:37:31;99973.72;;;11.39;100.00
64352;BME280;50680;52.626;-8.668;2023-03-18T01:39:58;99974.75;;;11.36;100.00
64352;BME280;50680;52.626;-8.668;2023-03-18T01:42:26;99980.97;;;11.35;100.00
64352;BME280;50680;52.626;-8.668;2023-03-18T01:45:29;99984.22;;;11.39;100.00
64352;BME280;50680;52.626;-8.668;2023-03-18T01:47:56;99997.22;;;11.40;100.00
64352;BME280;50680;52.626;-8.668;2023-03-18T01:50:28;99992.09;;;11.39;100.00
64352;BME280;50680;52.626;-8.668;2023-03-18T01:53:08;99991.13;;;11.40;100.00
64352;BME280;50680;52.626;-8.668;2023-03-18T01:55:36;99991.72;;;11.43;100.00
64352;BME280;50680;52.626;-8.668;2023-03-18T01:58:08;99989.22;;;11.42;100.00
64352;BME280;50680;52.626;-8.668;2023-03-18T02:00:40;99995.66;;;11.38;100.00
64352;BME280;50680;52.626;-8.668;2023-03-18T02:03:10;100002.69;;;11.37;100.00
64352;BME280;50680;52.626;-8.668;2023-03-18T02:05:39;100003.03;;;11.33;100.00
64352;BME280;50680;52.626;-8.668;2023-03-18T02:08:08;100011.28;;;11.39;100.00
64352;BME280;50680;52.626;-8.668;2023-03-18T02:10:36;99998.59;;;11.33;100.00
64352;BME280;50680;52.626;-8.668;2023-03-18T02:13:08;100009.59;;;11.38;100.00
64352;BME280;50680;52.626;-8.668;2023-03-18T02:15:39;100007.22;;;11.35;100.00
64352;BME280;50680;52.626;-8.668;2023-03-18T02:18:27;100015.81;;;11.37;100.00
64352;BME280;50680;52.626;-8.668;2023-03-18T02:21:14;100011.41;;;11.38;100.00
64352;BME280;50680;52.626;-8.668;2023-03-18T02:24:05;100016.16;;;11.33;100.00
64352;BME280;50680;52.626;-8.668;2023-03-18T02:29:12;100010.50;;;11.26;100.00
64352;BME280;50680;52.626;-8.668;2023-03-18T02:31:41;100018.16;;;11.29;100.00
64352;BME280;50680;52.626;-8.668;2023-03-18T02:34:09;100020.34;;;11.35;100.00
64352;BME280;50680;52.626;-8.668;2023-03-18T02:36:37;100016.88;;;11.35;100.00
64352;BME280;50680;52.626;-8.668;2023-03-18T02:39:04;100022.59;;;11.28;100.00
64352;BME280;50680;52.626;-8.668;2023-03-18T02:41:33;100022.59;;;11.28;100.00
64352;BME280;50680;52.626;-8.668;2023-03-18T02:44:01;100024.94;;;11.20;100.00
64352;BME280;50680;52.626;-8.668;2023-03-18T02:46:43;100026.25;;;11.26;100.00
64352;BME280;50680;52.626;-8.668;2023-03-18T02:49:13;100025.94;;;11.31;100.00
64352;BME280;50680;52.626;-8.668;2023-03-18T02:51:40;100024.44;;;11.15;100.00
64352;BME280;50680;52.626;-8.668;2023-03-18T02:54:10;100028.34;;;11.09;100.00
64352;BME280;50680;52.626;-8.668;2023-03-18T02:56:38;100034.31;;;11.12;100.00
64352;BME280;50680;52.626;-8.668;2023-03-18T02:59:07;100031.56;;;11.13;100.00
64352;BME280;50680;52.626;-8.668;2023-03-18T03:01:35;100031.06;;;11.08;100.00
64352;BME280;50680;52.626;-8.668;2023-03-18T03:04:03;100035.69;;;11.04;100.00
64352;BME280;50680;52.626;-8.668;2023-03-18T03:06:30;100043.22;;;11.09;100.00
64352;BME280;50680;52.626;-8.668;2023-03-18T03:08:57;100040.59;;;11.09;100.00
64352;BME280;50680;52.626;-8.668;2023-03-18T03:11:24;100041.78;;;11.05;100.00
64352;BME280;50680;52.626;-8.668;2023-03-18T03:13:51;100046.91;;;11.06;100.00
64352;BME280;50680;52.626;-8.668;2023-03-18T03:16:19;100049.31;;;11.09;100.00
64352;BME280;50680;52.626;-8.668;2023-03-18T03:18:46;100037.75;;;11.12;100.00
64352;BME280;50680;52.626;-8.668;2023-03-18T03:21:13;100037.97;;;11.09;100.00
64352;BME280;50680;52.626;-8.668;2023-03-18T03:23:40;100038.72;;;11.11;100.00
64352;BME280;50680;52.626;-8.668;2023-03-18T03:26:08;100036.09;;;11.11;100.00
64352;BME280;50680;52.626;-8.668;2023-03-18T03:28:35;100049.22;;;11.11;100.00
64352;BME280;50680;52.626;-8.668;2023-03-18T03:31:02;100053.72;;;11.09;100.00
64352;BME280;50680;52.626;-8.668;2023-03-18T03:33:29;100054.00;;;11.17;100.00
64352;BME280;50680;52.626;-8.668;2023-03-18T03:35:56;100050.44;;;11.18;100.00
64352;BME280;50680;52.626;-8.668;2023-03-18T03:38:24;100052.00;;;11.21;100.00
64352;BME280;50680;52.626;-8.668;2023-03-18T03:40:51;100059.66;;;11.24;100.00
64352;BME280;50680;52.626;-8.668;2023-03-18T03:43:20;100062.38;;;11.22;100.00
64352;BME280;50680;52.626;-8.668;2023-03-18T03:45:46;100058.72;;;11.25;100.00
64352;BME280;50680;52.626;-8.668;2023-03-18T03:48:13;100059.53;;;11.25;100.00
64352;BME280;50680;52.626;-8.668;2023-03-18T03:50:40;100055.81;;;11.17;100.00
64352;BME280;50680;52.626;-8.668;2023-03-18T03:53:07;100065.22;;;11.19;100.00
64352;BME280;50680;52.626;-8.668;2023-03-18T03:55:35;100067.13;;;11.17;100.00
64352;BME280;50680;52.626;-8.668;2023-03-18T03:58:03;100063.66;;;11.17;100.00
64352;BME280;50680;52.626;-8.668;2023-03-18T04:00:30;100069.63;;;11.19;100.00
64352;BME280;50680;52.626;-8.668;2023-03-18T04:02:58;100077.41;;;11.20;100.00
64352;BME280;50680;52.626;-8.668;2023-03-18T04:05:26;100076.47;;;11.21;100.00
64352;BME280;50680;52.626;-8.668;2023-03-18T04:07:53;100087.22;;;11.29;100.00
64352;BME280;50680;52.626;-8.668;2023-03-18T04:10:21;100086.50;;;11.27;100.00
64352;BME280;50680;52.626;-8.668;2023-03-18T04:12:48;100079.13;;;11.33;100.00
64352;BME280;50680;52.626;-8.668;2023-03-18T04:15:16;100079.63;;;11.38;100.00
64352;BME280;50680;52.626;-8.668;2023-03-18T04:17:44;100076.00;;;11.27;100.00
64352;BME280;50680;52.626;-8.668;2023-03-18T04:20:11;100091.31;;;11.34;100.00
64352;BME280;50680;52.626;-8.668;2023-03-18T04:22:38;100093.22;;;11.32;100.00
64352;BME280;50680;52.626;-8.668;2023-03-18T04:25:06;100090.81;;;11.28;100.00
64352;BME280;50680;52.626;-8.668;2023-03-18T04:27:33;100095.38;;;11.38;100.00
64352;BME280;50680;52.626;-8.668;2023-03-18T04:30:00;100098.94;;;11.37;100.00
64352;BME280;50680;52.626;-8.668;2023-03-18T04:32:27;100104.66;;;11.31;100.00
64352;BME280;50680;52.626;-8.668;2023-03-18T04:34:54;100103.22;;;11.26;100.00
64352;BME280;50680;52.626;-8.668;2023-03-18T04:37:21;100109.28;;;11.27;100.00
64352;BME280;50680;52.626;-8.668;2023-03-18T04:39:48;100111.00;;;11.15;100.00
64352;BME280;50680;52.626;-8.668;2023-03-18T04:42:15;100116.25;;;11.15;100.00
64352;BME280;50680;52.626;-8.668;2023-03-18T04:44:43;100121.59;;;11.14;100.00
64352;BME280;50680;52.626;-8.668;2023-03-18T04:47:10;100118.38;;;11.10;100.00
64352;BME280;50680;52.626;-8.668;2023-03-18T04:49:38;100120.78;;;11.13;100.00
64352;BME280;50680;52.626;-8.668;2023-03-18T04:52:06;100122.78;;;11.09;100.00
64352;BME280;50680;52.626;-8.668;2023-03-18T04:54:33;100122.56;;;11.13;100.00
64352;BME280;50680;52.626;-8.668;2023-03-18T04:57:00;100128.75;;;11.12;100.00
64352;BME280;50680;52.626;-8.668;2023-03-18T04:59:27;100141.03;;;11.11;100.00
64352;BME280;50680;52.626;-8.668;2023-03-18T05:01:53;100138.31;;;11.13;100.00
64352;BME280;50680;52.626;-8.668;2023-03-18T05:04:20;100147.44;;;11.07;100.00
64352;BME280;50680;52.626;-8.668;2023-03-18T05:06:47;100149.63;;;11.13;100.00
64352;BME280;50680;52.626;-8.668;2023-03-18T05:09:14;100137.38;;;11.01;100.00
64352;BME280;50680;52.626;-8.668;2023-03-18T05:11:41;100150.78;;;11.09;100.00
64352;BME280;50680;52.626;-8.668;2023-03-18T05:14:08;100147.94;;;11.12;100.00
64352;BME280;50680;52.626;-8.668;2023-03-18T05:16:35;100156.78;;;11.11;100.00
64352;BME280;50680;52.626;-8.668;2023-03-18T05:19:02;100166.41;;;11.10;100.00
64352;BME280;50680;52.626;-8.668;2023-03-18T05:21:29;100163.28;;;11.05;100.00
64352;BME280;50680;52.626;-8.668;2023-03-18T05:23:56;100170.41;;;11.03;100.00
64352;BME280;50680;52.626;-8.668;2023-03-18T05:26:22;100166.88;;;11.04;100.00
64352;BME280;50680;52.626;-8.668;2023-03-18T05:28:50;100172.22;;;11.03;100.00
64352;BME280;50680;52.626;-8.668;2023-03-18T05:31:18;100178.41;;;11.02;100.00
64352;BME280;50680;52.626;-8.668;2023-03-18T05:33:45;100168.13;;;10.99;100.00
64352;BME280;50680;52.626;-8.668;2023-03-18T05:36:12;100176.94;;;10.98;100.00
64352;BME280;50680;52.626;-8.668;2023-03-18T05:38:40;100176.94;;;10.98;100.00
64352;BME280;50680;52.626;-8.668;2023-03-18T05:41:06;100181.56;;;10.94;100.00
64352;BME280;50680;52.626;-8.668;2023-03-18T05:43:33;100176.72;;;11.01;100.00
64352;BME280;50680;52.626;-8.668;2023-03-18T05:46:00;100173.38;;;10.99;100.00
64352;BME280;50680;52.626;-8.668;2023-03-18T05:48:27;100190.69;;;11.01;100.00
64352;BME280;50680;52.626;-8.668;2023-03-18T05:50:54;100190.56;;;11.03;100.00
64352;BME280;50680;52.626;-8.668;2023-03-18T05:53:20;100192.22;;;11.04;100.00
64352;BME280;50680;52.626;-8.668;2023-03-18T05:55:47;100199.16;;;11.05;100.00
64352;BME280;50680;52.626;-8.668;2023-03-18T05:58:14;100195.63;;;11.06;100.00
64352;BME280;50680;52.626;-8.668;2023-03-18T06:00:41;100195.63;;;11.06;100.00
64352;BME280;50680;52.626;-8.668;2023-03-18T06:03:08;100200.75;;;11.07;100.00
64352;BME280;50680;52.626;-8.668;2023-03-18T06:05:35;100213.22;;;11.04;100.00
64352;BME280;50680;52.626;-8.668;2023-03-18T06:08:02;100213.00;;;11.07;100.00
64352;BME280;50680;52.626;-8.668;2023-03-18T06:10:29;100218.25;;;11.07;100.00
64352;BME280;50680;52.626;-8.668;2023-03-18T06:12:56;100220.88;;;11.07;100.00
64352;BME280;50680;52.626;-8.668;2023-03-18T06:15:23;100220.16;;;11.05;100.00
64352;BME280;50680;52.626;-8.668;2023-03-18T06:17:51;100225.41;;;11.05;100.00
64352;BME280;50680;52.626;-8.668;2023-03-18T06:20:18;100225.41;;;11.05;100.00
64352;BME280;50680;52.626;-8.668;2023-03-18T06:22:45;100211.13;;;10.96;100.00
64352;BME280;50680;52.626;-8.668;2023-03-18T06:25:18;100231.59;;;11.04;100.00
64352;BME280;50680;52.626;-8.668;2023-03-18T06:27:45;100240.53;;;11.01;100.00
64352;BME280;50680;52.626;-8.668;2023-03-18T06:30:14;100250.19;;;11.01;100.00
64352;BME280;50680;52.626;-8.668;2023-03-18T06:32:42;100250.38;;;10.98;100.00
64352;BME280;50680;52.626;-8.668;2023-03-18T06:35:10;100251.41;;;10.95;100.00
64352;BME280;50680;52.626;-8.668;2023-03-18T06:37:38;100268.13;;;10.94;100.00
64352;BME280;50680;52.626;-8.668;2023-03-18T06:40:06;100278.19;;;10.87;100.00
64352;BME280;50680;52.626;-8.668;2023-03-18T06:42:34;100282.25;;;10.91;100.00
64352;BME280;50680;52.626;-8.668;2023-03-18T06:45:01;100284.78;;;10.93;100.00
64352;BME280;50680;52.626;-8.668;2023-03-18T06:47:28;100278.72;;;10.93;100.00
64352;BME280;50680;52.626;-8.668;2023-03-18T06:49:55;100289.94;;;10.95;100.00
64352;BME280;50680;52.626;-8.668;2023-03-18T06:52:22;100291.72;;;10.94;100.00
64352;BME280;50680;52.626;-8.668;2023-03-18T06:54:49;100296.34;;;10.90;100.00
64352;BME280;50680;52.626;-8.668;2023-03-18T06:57:17;100307.03;;;10.87;100.00
64352;BME280;50680;52.626;-8.668;2023-03-18T06:59:44;100310.91;;;10.95;100.00
64352;BME280;50680;52.626;-8.668;2023-03-18T07:02:11;100309.97;;;10.96;100.00
64352;BME280;50680;52.626;-8.668;2023-03-18T07:04:38;100315.97;;;10.98;100.00
64352;BME280;50680;52.626;-8.668;2023-03-18T07:07:05;100320.28;;;10.99;100.00
64352;BME280;50680;52.626;-8.668;2023-03-18T07:09:32;100315.88;;;10.99;100.00
64352;BME280;50680;52.626;-8.668;2023-03-18T07:11:59;100314.91;;;11.00;100.00
64352;BME280;50680;52.626;-8.668;2023-03-18T07:14:26;100328.97;;;10.99;100.00
64352;BME280;50680;52.626;-8.668;2023-03-18T07:16:54;100336.22;;;10.96;100.00
64352;BME280;50680;52.626;-8.668;2023-03-18T07:19:21;100337.16;;;10.95;100.00
64352;BME280;50680;52.626;-8.668;2023-03-18T07:21:48;100350.06;;;10.98;100.00
64352;BME280;50680;52.626;-8.668;2023-03-18T07:24:15;100360.13;;;11.04;100.00
64352;BME280;50680;52.626;-8.668;2023-03-18T07:26:42;100365.81;;;11.10;100.00
64352;BME280;50680;52.626;-8.668;2023-03-18T07:29:09;100364.97;;;11.10;100.00
64352;BME280;50680;52.626;-8.668;2023-03-18T07:31:36;100361.94;;;11.16;100.00
64352;BME280;50680;52.626;-8.668;2023-03-18T07:34:03;100362.47;;;11.21;100.00
64352;BME280;50680;52.626;-8.668;2023-03-18T07:36:31;100357.97;;;11.23;100.00
64352;BME280;50680;52.626;-8.668;2023-03-18T07:38:57;100357.88;;;11.25;100.00
64352;BME280;50680;52.626;-8.668;2023-03-18T07:41:25;100363.94;;;11.25;100.00
64352;BME280;50680;52.626;-8.668;2023-03-18T07:43:52;100373.50;;;11.26;100.00
64352;BME280;50680;52.626;-8.668;2023-03-18T07:46:19;100383.03;;;11.27;100.00
64352;BME280;50680;52.626;-8.668;2023-03-18T07:48:47;100380.41;;;11.27;100.00
64352;BME280;50680;52.626;-8.668;2023-03-18T07:51:15;100368.88;;;11.30;100.00
64352;BME280;50680;52.626;-8.668;2023-03-18T07:53:42;100385.16;;;11.48;100.00
64352;BME280;50680;52.626;-8.668;2023-03-18T07:56:09;100389.34;;;11.63;100.00
64352;BME280;50680;52.626;-8.668;2023-03-18T07:58:36;100393.97;;;11.73;100.00
64352;BME280;50680;52.626;-8.668;2023-03-18T08:01:04;100389.13;;;11.79;100.00
64352;BME280;50680;52.626;-8.668;2023-03-18T08:03:31;100396.69;;;11.84;100.00
64352;BME280;50680;52.626;-8.668;2023-03-18T08:05:59;100411.22;;;11.77;100.00
64352;BME280;50680;52.626;-8.668;2023-03-18T08:08:27;100418.31;;;11.75;100.00
64352;BME280;50680;52.626;-8.668;2023-03-18T08:10:58;100419.81;;;11.79;100.00
64352;BME280;50680;52.626;-8.668;2023-03-18T08:13:26;100420.03;;;11.76;100.00
64352;BME280;50680;52.626;-8.668;2023-03-18T08:15:53;100428.53;;;11.79;100.00
64352;BME280;50680;52.626;-8.668;2023-03-18T08:18:21;100432.63;;;11.83;100.00
64352;BME280;50680;52.626;-8.668;2023-03-18T08:20:48;100434.31;;;11.84;100.00
64352;BME280;50680;52.626;-8.668;2023-03-18T08:23:15;100440.19;;;11.88;100.00
64352;BME280;50680;52.626;-8.668;2023-03-18T08:25:42;100446.41;;;11.87;100.00
64352;BME280;50680;52.626;-8.668;2023-03-18T08:28:08;100446.59;;;11.84;100.00
64352;BME280;50680;52.626;-8.668;2023-03-18T08:30:37;100464.38;;;11.80;100.00
64352;BME280;50680;52.626;-8.668;2023-03-18T08:33:04;100464.38;;;11.80;100.00
64352;BME280;50680;52.626;-8.668;2023-03-18T08:35:31;100450.16;;;11.83;100.00
64352;BME280;50680;52.626;-8.668;2023-03-18T08:38:00;100458.03;;;11.83;100.00
64352;BME280;50680;52.626;-8.668;2023-03-18T08:40:27;100470.03;;;11.87;100.00
64352;BME280;50680;52.626;-8.668;2023-03-18T08:42:54;100465.34;;;11.92;100.00
64352;BME280;50680;52.626;-8.668;2023-03-18T08:45:21;100473.50;;;12.00;100.00
64352;BME280;50680;52.626;-8.668;2023-03-18T08:47:48;100479.50;;;12.02;100.00
64352;BME280;50680;52.626;-8.668;2023-03-18T08:50:15;100482.88;;;12.04;100.00
64352;BME280;50680;52.626;-8.668;2023-03-18T08:52:42;100481.81;;;12.07;100.00
64352;BME280;50680;52.626;-8.668;2023-03-18T08:55:09;100487.59;;;12.12;100.00
64352;BME280;50680;52.626;-8.668;2023-03-18T08:57:36;100491.72;;;12.16;100.00
64352;BME280;50680;52.626;-8.668;2023-03-18T09:00:04;100502.84;;;12.20;100.00
64352;BME280;50680;52.626;-8.668;2023-03-18T09:02:31;100501.34;;;12.16;100.00
64352;BME280;50680;52.626;-8.668;2023-03-18T09:04:59;100517.22;;;12.14;100.00
64352;BME280;50680;52.626;-8.668;2023-03-18T09:07:26;100517.34;;;12.00;100.00
64352;BME280;50680;52.626;-8.668;2023-03-18T09:09:53;100520.50;;;11.92;100.00
64352;BME280;50680;52.626;-8.668;2023-03-18T09:12:20;100549.09;;;11.44;100.00
64352;BME280;50680;52.626;-8.668;2023-03-18T09:14:48;100554.25;;;11.04;100.00
64352;BME280;50680;52.626;-8.668;2023-03-18T09:17:15;100569.25;;;10.46;100.00
64352;BME280;50680;52.626;-8.668;2023-03-18T09:19:42;100579.22;;;10.25;100.00
64352;BME280;50680;52.626;-8.668;2023-03-18T09:22:09;100580.16;;;10.24;100.00
64352;BME280;50680;52.626;-8.668;2023-03-18T09:24:36;100592.88;;;10.15;100.00
64352;BME280;50680;52.626;-8.668;2023-03-18T09:27:03;100596.59;;;10.11;100.00
64352;BME280;50680;52.626;-8.668;2023-03-18T09:29:30;100612.66;;;9.91;100.00
64352;BME280;50680;52.626;-8.668;2023-03-18T09:31:57;100615.72;;;9.83;100.00
64352;BME280;50680;52.626;-8.668;2023-03-18T09:34:24;100615.06;;;9.64;100.00
64352;BME280;50680;52.626;-8.668;2023-03-18T09:36:51;100615.66;;;9.69;100.00
64352;BME280;50680;52.626;-8.668;2023-03-18T09:39:19;100629.66;;;9.53;100.00
64352;BME280;50680;52.626;-8.668;2023-03-18T09:44:41;100652.41;;;9.51;100.00
64352;BME280;50680;52.626;-8.668;2023-03-18T09:47:15;100665.34;;;9.54;100.00
64352;BME280;50680;52.626;-8.668;2023-03-18T09:50:00;100675.81;;;9.54;100.00
64352;BME280;50680;52.626;-8.668;2023-03-18T09:57:58;100699.63;;;9.66;100.00
64352;BME280;50680;52.626;-8.668;2023-03-18T10:00:32;100703.25;;;9.63;100.00
64352;BME280;50680;52.626;-8.668;2023-03-18T10:03:24;100721.84;;;9.74;100.00
64352;BME280;50680;52.626;-8.668;2023-03-18T10:06:06;100707.88;;;9.90;100.00
64352;BME280;50680;52.626;-8.668;2023-03-18T10:11:32;100720.28;;;9.70;100.00
64352;BME280;50680;52.626;-8.668;2023-03-18T10:19:53;100747.38;;;10.01;100.00
64352;BME280;50680;52.626;-8.668;2023-03-18T10:22:45;100758.38;;;9.92;100.00
64352;BME280;50680;52.626;-8.668;2023-03-18T10:36:38;100787.09;;;10.09;100.00
64352;BME280;50680;52.626;-8.668;2023-03-18T10:39:14;100805.28;;;10.12;100.00
64352;BME280;50680;52.626;-8.668;2023-03-18T10:41:43;100790.28;;;10.46;100.00
64352;BME280;50680;52.626;-8.668;2023-03-18T10:44:17;100789.59;;;10.27;100.00
64352;BME280;50680;52.626;-8.668;2023-03-18T10:46:46;100777.97;;;10.32;100.00
64352;BME280;50680;52.626;-8.668;2023-03-18T10:49:24;100792.22;;;10.27;100.00
64352;BME280;50680;52.626;-8.668;2023-03-18T10:51:58;100804.50;;;10.42;100.00
64352;BME280;50680;52.626;-8.668;2023-03-18T10:54:38;100803.53;;;10.43;100.00
64352;BME280;50680;52.626;-8.668;2023-03-18T10:57:13;100809.56;;;10.45;100.00
64352;BME280;50680;52.626;-8.668;2023-03-18T10:59:44;100808.44;;;10.49;100.00
64352;BME280;50680;52.626;-8.668;2023-03-18T11:04:52;100824.19;;;10.80;100.00
64352;BME280;50680;52.626;-8.668;2023-03-18T11:07:23;100825.59;;;10.55;100.00
64352;BME280;50680;52.626;-8.668;2023-03-18T11:09:53;100836.44;;;10.79;100.00
64352;BME280;50680;52.626;-8.668;2023-03-18T11:12:27;100846.84;;;10.81;100.00
64352;BME280;50680;52.626;-8.668;2023-03-18T11:14:55;100850.19;;;10.99;100.00
64352;BME280;50680;52.626;-8.668;2023-03-18T11:17:39;100853.63;;;10.85;100.00
64352;BME280;50680;52.626;-8.668;2023-03-18T11:23:03;100855.16;;;10.73;100.00
64352;BME280;50680;52.626;-8.668;2023-03-18T11:25:38;100848.53;;;10.82;100.00
64352;BME280;50680;52.626;-8.668;2023-03-18T11:28:18;100860.38;;;11.03;100.00
64352;BME280;50680;52.626;-8.668;2023-03-18T11:30:47;100832.00;;;10.65;100.00
64352;BME280;50680;52.626;-8.668;2023-03-18T11:33:15;100850.22;;;10.83;100.00
64352;BME280;50680;52.626;-8.668;2023-03-18T11:35:51;100847.47;;;10.70;100.00
64352;BME280;50680;52.626;-8.668;2023-03-18T11:38:28;100870.81;;;11.05;100.00
64352;BME280;50680;52.626;-8.668;2023-03-18T11:41:21;100876.38;;;11.29;100.00
64352;BME280;50680;52.626;-8.668;2023-03-18T11:44:18;100875.16;;;11.35;100.00
64352;BME280;50680;52.626;-8.668;2023-03-18T11:46:55;100877.25;;;11.44;100.00
64352;BME280;50680;52.626;-8.668;2023-03-18T11:49:26;100883.56;;;11.11;100.00
64352;BME280;50680;52.626;-8.668;2023-03-18T12:01:12;100894.09;;;11.40;100.00
64352;BME280;50680;52.626;-8.668;2023-03-18T12:03:53;100899.06;;;11.30;100.00
64352;BME280;50680;52.626;-8.668;2023-03-18T12:06:29;100907.72;;;11.61;100.00
64352;BME280;50680;52.626;-8.668;2023-03-18T12:19:53;100905.91;;;12.33;100.00
64352;BME280;50680;52.626;-8.668;2023-03-18T12:22:32;100910.81;;;12.79;100.00
64352;BME280;50680;52.626;-8.668;2023-03-18T12:25:19;100906.50;;;13.19;100.00
64352;BME280;50680;52.626;-8.668;2023-03-18T12:39:46;100912.44;;;13.61;100.00
64352;BME280;50680;52.626;-8.668;2023-03-18T12:42:05;100910.31;;;13.27;100.00
64352;BME280;50680;52.626;-8.668;2023-03-18T12:44:57;100914.88;;;13.38;100.00
64352;BME280;50680;52.626;-8.668;2023-03-18T12:49:59;100918.53;;;13.35;100.00
64352;BME280;50680;52.626;-8.668;2023-03-18T12:55:30;100917.56;;;13.24;100.00
64352;BME280;50680;52.626;-8.668;2023-03-18T13:00:45;100942.75;;;12.88;100.00
64352;BME280;50680;52.626;-8.668;2023-03-18T13:03:32;100939.06;;;12.90;100.00
64352;BME280;50680;52.626;-8.668;2023-03-18T13:06:19;100950.28;;;12.79;100.00
64352;BME280;50680;52.626;-8.668;2023-03-18T13:14:46;100949.47;;;12.65;100.00
64352;BME280;50680;52.626;-8.668;2023-03-18T13:17:38;100951.72;;;12.98;100.00
64352;BME280;50680;52.626;-8.668;2023-03-18T13:20:15;100956.63;;;13.30;100.00
64352;BME280;50680;52.626;-8.668;2023-03-18T13:30:58;100968.34;;;12.44;100.00
64352;BME280;50680;52.626;-8.668;2023-03-18T13:34:10;100979.19;;;12.67;100.00
64352;BME280;50680;52.626;-8.668;2023-03-18T13:39:55;100974.31;;;13.15;100.00
64352;BME280;50680;52.626;-8.668;2023-03-18T13:42:28;100977.97;;;13.12;100.00
64352;BME280;50680;52.626;-8.668;2023-03-18T13:47:40;100976.72;;;13.45;100.00
64352;BME280;50680;52.626;-8.668;2023-03-18T13:52:47;100973.13;;;13.46;100.00
64352;BME280;50680;52.626;-8.668;2023-03-18T13:58:17;100984.78;;;13.02;100.00
64352;BME280;50680;52.626;-8.668;2023-03-18T14:01:15;100987.28;;;12.91;100.00
64352;BME280;50680;52.626;-8.668;2023-03-18T14:06:51;100994.13;;;13.48;100.00
64352;BME280;50680;52.626;-8.668;2023-03-18T14:09:31;101011.38;;;13.25;100.00
64352;BME280;50680;52.626;-8.668;2023-03-18T14:17:52;101026.63;;;12.51;100.00
64352;BME280;50680;52.626;-8.668;2023-03-18T14:20:25;101023.34;;;12.62;100.00
64352;BME280;50680;52.626;-8.668;2023-03-18T14:22:55;101024.56;;;12.70;100.00
64352;BME280;50680;52.626;-8.668;2023-03-18T14:25:37;101019.53;;;12.53;100.00
64352;BME280;50680;52.626;-8.668;2023-03-18T14:35:36;101038.09;;;12.35;100.00
64352;BME280;50680;52.626;-8.668;2023-03-18T14:41:10;101034.28;;;12.41;100.00
64352;BME280;50680;52.626;-8.668;2023-03-18T14:43:46;101038.50;;;12.29;100.00
64352;BME280;50680;52.626;-8.668;2023-03-18T14:46:20;101045.72;;;12.26;100.00
64352;BME280;50680;52.626;-8.668;2023-03-18T14:48:50;101052.25;;;12.76;100.00